LATI/TIA METAR and TAF weather

Enter ICAO airport designator
Station Type Date Time Source
LATI METAR 2022/01/19 19:50 UTC NOAA

LATI 191950Z 16004KT CAVOK 01/M06 Q1029 NOSIG


Station Type Date Time Source
LATI Decoded METAR 2022/01/19 19:50 UTC NOAA

Tirana, Albania (LATI) 41-20N 019-47E 90M
Jan 19, 2022 - 02:50 PM EST / 2022.01.19 1950 UTC
Wind: from the SSE (160 degrees) at 5 MPH (4 KT):0
Visibility: greater than 7 mile(s):0
Temperature: 33 F (1 C)
Windchill: 28 F (-2 C):1
Dew Point: 21 F (-6 C)
Relative Humidity: 59%
Pressure (altimeter): 30.39 in. Hg (1029 hPa)
ob: LATI 191950Z 16004KT CAVOK 01/M06 Q1029 NOSIG
cycle: 20

Station Type Date Time Source
LATI TAF 2022/01/19 18:06 UTC NOAA

TAF TAF LATI 191700Z 1918/2018 VRB05KT CAVOK TX12/2012Z TNM02/2005Z
TEMPO 2010/2018 15012KT SCT040 BKN080

Example: see airport list